createdAt,value
2016-12-05T00:00:02.328Z,0
2016-12-05T00:01:17.269Z,0
2016-12-05T00:02:17.283Z,0
2016-12-05T00:04:17.309Z,0
2016-12-05T00:05:02.409Z,0
2016-12-05T00:06:17.336Z,0
2016-12-05T00:08:02.452Z,0
2016-12-05T00:09:02.460Z,0
2016-12-05T00:10:02.471Z,0
2016-12-05T00:12:02.508Z,0
2016-12-05T00:13:02.517Z,0
2016-12-05T00:14:02.530Z,0
2016-12-05T00:15:02.547Z,0
2016-12-05T00:16:17.480Z,0
2016-12-05T00:17:02.604Z,0
2016-12-05T00:19:02.606Z,0
2016-12-05T00:20:17.535Z,0
2016-12-05T00:21:17.562Z,0
2016-12-05T00:22:02.703Z,0
2016-12-05T00:23:17.589Z,0
2016-12-05T00:24:02.685Z,0
2016-12-05T00:25:02.694Z,0
2016-12-05T00:26:02.709Z,0
2016-12-05T00:27:02.723Z,0
2016-12-05T00:28:02.786Z,0
2016-12-05T00:29:17.671Z,0
2016-12-05T00:30:02.754Z,0
2016-12-05T00:31:02.827Z,0
2016-12-05T00:32:02.793Z,0
2016-12-05T00:33:02.857Z,0
2016-12-05T00:34:17.747Z,0
2016-12-05T00:36:32.695Z,0
2016-12-05T00:37:17.794Z,0
2016-12-05T00:38:02.930Z,0
2016-12-05T00:39:02.901Z,0
2016-12-05T00:40:02.898Z,0
2016-12-05T00:41:02.921Z,0
2016-12-05T00:42:02.942Z,0
2016-12-05T00:43:17.872Z,0
2016-12-05T00:44:02.971Z,0
2016-12-05T00:45:02.978Z,0
2016-12-05T00:46:17.917Z,0
2016-12-05T00:47:03.006Z,0
2016-12-05T00:48:03.022Z,0
2016-12-05T00:49:03.044Z,0
2016-12-05T00:50:03.047Z,0
2016-12-05T00:51:17.980Z,0
2016-12-05T00:52:17.998Z,0
2016-12-05T00:53:03.085Z,0
2016-12-05T00:54:03.112Z,0
2016-12-05T00:55:03.126Z,0
2016-12-05T00:56:03.143Z,0
2016-12-05T00:57:03.149Z,0
2016-12-05T00:58:03.164Z,0
2016-12-05T00:59:03.181Z,0
2016-12-05T01:00:18.116Z,0
2016-12-05T01:01:18.130Z,0
2016-12-05T01:02:03.218Z,0
2016-12-05T01:03:03.235Z,0
2016-12-05T01:04:03.259Z,0
2016-12-05T01:06:18.236Z,0
2016-12-05T01:07:03.296Z,0
2016-12-05T01:08:18.544Z,0
2016-12-05T01:09:03.333Z,0
2016-12-05T01:10:03.382Z,0
2016-12-05T01:11:03.645Z,0
2016-12-05T01:13:03.378Z,0
2016-12-05T01:14:03.391Z,0
2016-12-05T01:15:03.402Z,0
2016-12-05T01:16:03.418Z,0
2016-12-05T01:17:03.436Z,0
2016-12-05T01:18:03.451Z,0
2016-12-05T01:19:18.382Z,0
2016-12-05T01:20:03.495Z,0
2016-12-05T01:21:03.791Z,0
2016-12-05T01:22:18.434Z,0
2016-12-05T01:23:33.366Z,0
2016-12-05T01:24:18.464Z,0
2016-12-05T01:25:03.551Z,0
2016-12-05T01:26:03.568Z,0
2016-12-05T01:27:03.572Z,0
2016-12-05T01:28:03.599Z,0
2016-12-05T01:30:03.625Z,0
2016-12-05T01:32:03.649Z,0
2016-12-05T01:34:03.671Z,0
2016-12-05T01:35:03.749Z,0
2016-12-05T01:36:03.714Z,0
2016-12-05T01:37:03.719Z,0
2016-12-05T01:38:03.747Z,0
2016-12-05T01:39:18.668Z,0
2016-12-05T01:40:03.768Z,0
2016-12-05T01:41:03.778Z,0
2016-12-05T01:42:03.790Z,0
2016-12-05T01:43:03.808Z,0
2016-12-05T01:44:03.819Z,0
2016-12-05T01:45:03.832Z,0
2016-12-05T01:46:03.845Z,0
2016-12-05T01:47:03.868Z,0
2016-12-05T01:48:03.877Z,0
2016-12-05T01:49:04.192Z,0
2016-12-05T01:50:18.832Z,0
2016-12-05T01:51:03.919Z,0
2016-12-05T01:52:18.854Z,0
2016-12-05T01:53:03.975Z,0
2016-12-05T01:54:18.885Z,0
2016-12-05T01:55:18.899Z,0
2016-12-05T01:56:18.958Z,0
2016-12-05T01:57:03.998Z,0
2016-12-05T01:58:04.021Z,0
2016-12-05T01:59:04.036Z,0
2016-12-05T02:00:04.040Z,0
2016-12-05T02:01:04.066Z,0
2016-12-05T02:02:04.074Z,0
2016-12-05T02:03:19.012Z,0
2016-12-05T02:04:04.410Z,0
2016-12-05T02:05:04.119Z,0
2016-12-05T02:06:19.049Z,0
2016-12-05T02:07:04.441Z,0
2016-12-05T02:08:04.162Z,0
2016-12-05T02:09:04.171Z,0
2016-12-05T02:10:04.192Z,0
2016-12-05T02:11:19.167Z,0
2016-12-05T02:13:04.232Z,0
2016-12-05T02:15:04.266Z,0
2016-12-05T02:16:04.274Z,0
2016-12-05T02:17:04.302Z,0
2016-12-05T02:18:04.293Z,0
2016-12-05T02:19:04.317Z,0
2016-12-05T02:20:04.328Z,0
2016-12-05T02:21:04.336Z,0
2016-12-05T02:22:04.362Z,0
2016-12-05T02:23:04.370Z,0
2016-12-05T02:24:04.379Z,0
2016-12-05T02:25:04.396Z,0
2016-12-05T02:26:04.417Z,0
2016-12-05T02:27:19.340Z,0
2016-12-05T02:28:04.445Z,0
2016-12-05T02:29:04.467Z,0
2016-12-05T02:30:04.470Z,0
2016-12-05T02:32:04.799Z,0
2016-12-05T02:34:04.525Z,0
2016-12-05T02:35:04.537Z,0
2016-12-05T02:36:04.551Z,0
2016-12-05T02:37:19.487Z,0
2016-12-05T02:38:04.571Z,0
2016-12-05T02:39:04.584Z,0
2016-12-05T02:40:19.532Z,0
2016-12-05T02:41:04.615Z,0
2016-12-05T02:42:04.638Z,0
2016-12-05T02:43:19.572Z,0
2016-12-05T02:44:04.675Z,0
2016-12-05T02:45:04.682Z,0
2016-12-05T02:46:04.685Z,0
2016-12-05T02:47:05.033Z,0
2016-12-05T02:48:04.714Z,0
2016-12-05T02:49:04.784Z,0
2016-12-05T02:50:04.744Z,0
2016-12-05T02:51:19.681Z,0
2016-12-05T02:52:04.768Z,0
2016-12-05T02:53:04.789Z,0
2016-12-05T02:54:04.795Z,0
2016-12-05T02:55:04.818Z,0
2016-12-05T02:56:04.841Z,0
2016-12-05T02:57:19.765Z,0
2016-12-05T02:58:19.785Z,0
2016-12-05T02:59:19.790Z,0
2016-12-05T03:00:04.891Z,0
2016-12-05T03:01:04.903Z,0
2016-12-05T03:02:04.908Z,0
2016-12-05T03:03:19.855Z,0
2016-12-05T03:04:04.938Z,0
2016-12-05T03:05:04.955Z,0
2016-12-05T03:06:04.978Z,0
2016-12-05T03:07:04.990Z,0
2016-12-05T03:08:04.996Z,0
2016-12-05T03:09:05.009Z,0
2016-12-05T03:10:05.229Z,0
2016-12-05T03:11:05.046Z,0
2016-12-05T03:12:05.048Z,0
2016-12-05T03:13:05.072Z,0
2016-12-05T03:14:05.081Z,0
2016-12-05T03:15:05.094Z,0
2016-12-05T03:17:05.125Z,0
2016-12-05T03:18:05.138Z,0
2016-12-05T03:19:05.156Z,0
2016-12-05T03:20:05.166Z,0
2016-12-05T03:21:05.185Z,0
2016-12-05T03:22:05.196Z,0
2016-12-05T03:23:05.209Z,0
2016-12-05T03:24:05.225Z,0
2016-12-05T03:25:05.240Z,0
2016-12-05T03:26:05.246Z,0
2016-12-05T03:27:05.309Z,0
2016-12-05T03:28:20.209Z,0
2016-12-05T03:29:05.289Z,0
2016-12-05T03:30:20.231Z,0
2016-12-05T03:31:20.238Z,0
2016-12-05T03:32:05.333Z,0
2016-12-05T03:33:05.346Z,0
2016-12-05T03:34:20.281Z,0
2016-12-05T03:35:05.374Z,0
2016-12-05T03:36:05.390Z,0
2016-12-05T03:37:05.432Z,0
2016-12-05T03:38:05.433Z,0
2016-12-05T03:39:05.469Z,0
2016-12-05T03:40:05.442Z,0
2016-12-05T03:41:05.453Z,0
2016-12-05T03:42:05.475Z,0
2016-12-05T03:43:05.493Z,0
2016-12-05T03:44:20.429Z,0
2016-12-05T03:45:20.461Z,0
2016-12-05T03:46:20.448Z,0
2016-12-05T03:47:20.461Z,0
2016-12-05T03:48:20.474Z,0
2016-12-05T03:49:05.579Z,0
2016-12-05T03:50:20.512Z,0
2016-12-05T03:51:05.604Z,0
2016-12-05T03:52:05.616Z,0
2016-12-05T03:53:05.627Z,0
2016-12-05T03:54:05.641Z,0
2016-12-05T03:55:20.577Z,0
2016-12-05T03:56:05.672Z,0
2016-12-05T03:57:20.906Z,0
2016-12-05T03:58:20.647Z,0
2016-12-05T03:59:05.710Z,0
2016-12-05T04:01:05.735Z,0
2016-12-05T04:02:20.670Z,0
2016-12-05T04:03:05.772Z,0
2016-12-05T04:04:05.782Z,0
2016-12-05T04:06:05.817Z,0
2016-12-05T04:07:06.127Z,0
2016-12-05T04:08:05.843Z,0
2016-12-05T04:09:06.156Z,0
2016-12-05T04:10:05.859Z,0
2016-12-05T04:11:06.177Z,0
2016-12-05T04:12:05.889Z,0
2016-12-05T04:13:20.828Z,0
2016-12-05T04:14:20.840Z,0
2016-12-05T04:15:05.931Z,0
2016-12-05T04:16:05.950Z,0
2016-12-05T04:17:05.955Z,0
2016-12-05T04:18:20.895Z,0
2016-12-05T04:19:06.037Z,0
2016-12-05T04:20:06.311Z,0
2016-12-05T04:21:06.014Z,0
2016-12-05T04:22:06.022Z,0
2016-12-05T04:23:06.043Z,0
2016-12-05T04:24:06.051Z,0
2016-12-05T04:25:06.063Z,0
2016-12-05T04:26:06.131Z,0
2016-12-05T04:27:21.020Z,0
2016-12-05T04:28:06.108Z,0
2016-12-05T04:29:06.123Z,0
2016-12-05T04:31:06.147Z,0
2016-12-05T04:32:06.194Z,0
2016-12-05T04:33:21.099Z,0
2016-12-05T04:34:06.192Z,0
2016-12-05T04:35:21.136Z,0
2016-12-05T04:37:06.229Z,0
2016-12-05T04:38:06.248Z,0
2016-12-05T04:39:06.255Z,0
2016-12-05T04:40:06.278Z,0
2016-12-05T04:41:06.585Z,0
2016-12-05T04:42:21.230Z,0
2016-12-05T04:43:06.325Z,0
2016-12-05T04:44:06.328Z,0
2016-12-05T04:45:06.353Z,0
2016-12-05T04:46:06.376Z,0
2016-12-05T04:47:06.366Z,0
2016-12-05T04:48:21.303Z,0
2016-12-05T04:49:06.392Z,0
2016-12-05T04:50:06.414Z,0
2016-12-05T04:51:06.439Z,0
2016-12-05T04:52:06.442Z,0
2016-12-05T04:53:06.450Z,0
2016-12-05T04:54:06.470Z,0
2016-12-05T04:55:06.485Z,0
2016-12-05T04:56:06.496Z,0
2016-12-05T04:57:06.510Z,0
2016-12-05T04:58:06.518Z,0
2016-12-05T04:59:06.535Z,0
2016-12-05T05:00:06.551Z,0
2016-12-05T05:01:06.563Z,0
2016-12-05T05:02:06.577Z,0
2016-12-05T05:03:21.517Z,0
2016-12-05T05:04:06.608Z,0
2016-12-05T05:05:21.543Z,0
2016-12-05T05:06:06.627Z,0
2016-12-05T05:07:06.650Z,0
2016-12-05T05:08:36.498Z,0
2016-12-05T05:09:06.675Z,0
2016-12-05T05:10:06.680Z,0
2016-12-05T05:11:21.623Z,0
2016-12-05T05:12:06.713Z,0
2016-12-05T05:13:06.733Z,0
2016-12-05T05:14:06.736Z,0
2016-12-05T05:15:06.761Z,0
2016-12-05T05:16:06.815Z,0
2016-12-05T05:17:06.786Z,0
2016-12-05T05:19:06.802Z,0
2016-12-05T05:20:06.842Z,0
2016-12-05T05:21:21.754Z,0
2016-12-05T05:22:06.845Z,0
2016-12-05T05:23:21.807Z,0
2016-12-05T05:24:06.926Z,0
2016-12-05T05:25:06.888Z,0
2016-12-05T05:26:06.909Z,0
2016-12-05T05:27:21.850Z,0
2016-12-05T05:28:06.935Z,0
2016-12-05T05:29:06.951Z,0
2016-12-05T05:30:21.887Z,0
2016-12-05T05:31:06.973Z,0
2016-12-05T05:32:06.983Z,0
2016-12-05T05:33:06.998Z,0
2016-12-05T05:34:07.015Z,0
2016-12-05T05:35:07.027Z,0
2016-12-05T05:36:07.046Z,0
2016-12-05T05:37:22.122Z,0
2016-12-05T05:38:07.062Z,0
2016-12-05T05:39:22.007Z,0
2016-12-05T05:40:07.401Z,0
2016-12-05T05:41:22.021Z,0
2016-12-05T05:42:07.123Z,0
2016-12-05T05:43:07.166Z,0
2016-12-05T05:44:07.154Z,0
2016-12-05T05:45:07.165Z,0
2016-12-05T05:46:07.233Z,0
2016-12-05T05:47:22.112Z,0
2016-12-05T05:48:07.201Z,0
2016-12-05T05:49:22.136Z,0
2016-12-05T05:50:07.224Z,0
2016-12-05T05:51:07.595Z,0
2016-12-05T05:52:22.182Z,0
2016-12-05T05:53:22.194Z,0
2016-12-05T05:54:07.284Z,0
2016-12-05T05:55:07.294Z,0
2016-12-05T05:56:37.155Z,0
2016-12-05T05:57:07.379Z,0
2016-12-05T05:58:07.337Z,0
2016-12-05T05:59:07.379Z,0
2016-12-05T06:00:22.291Z,0
2016-12-05T06:01:07.382Z,0
2016-12-05T06:02:07.403Z,0
2016-12-05T06:03:07.408Z,0
2016-12-05T06:04:07.416Z,0
2016-12-05T06:05:07.443Z,0
2016-12-05T06:06:22.375Z,0
2016-12-05T06:07:07.456Z,0
2016-12-05T06:08:22.393Z,0
2016-12-05T06:09:07.486Z,0
2016-12-05T06:10:22.418Z,0
2016-12-05T06:11:07.516Z,0
2016-12-05T06:12:07.531Z,0
2016-12-05T06:13:07.546Z,0
2016-12-05T06:14:07.585Z,0
2016-12-05T06:15:07.575Z,0
2016-12-05T06:16:07.584Z,0
2016-12-05T06:17:07.599Z,0
2016-12-05T06:18:07.612Z,0
2016-12-05T06:19:07.626Z,0
2016-12-05T06:20:22.565Z,0
2016-12-05T06:21:07.663Z,0
2016-12-05T06:22:07.669Z,0
2016-12-05T06:23:07.685Z,0
2016-12-05T06:25:07.710Z,0
2016-12-05T06:26:22.695Z,0
2016-12-05T06:27:07.731Z,0
2016-12-05T06:28:07.749Z,0
2016-12-05T06:29:07.756Z,0
2016-12-05T06:30:07.770Z,0
2016-12-05T06:31:22.708Z,0
2016-12-05T06:32:08.110Z,0
2016-12-05T06:33:07.819Z,0
2016-12-05T06:34:07.832Z,0
2016-12-05T06:35:07.839Z,0
2016-12-05T06:36:07.861Z,0
2016-12-05T06:37:22.789Z,0
2016-12-05T06:38:22.804Z,0
2016-12-05T06:39:23.114Z,0
2016-12-05T06:40:22.831Z,0
2016-12-05T06:41:07.923Z,0
2016-12-05T06:42:07.945Z,0
2016-12-05T06:43:07.949Z,0
2016-12-05T06:45:07.980Z,0
2016-12-05T06:46:22.913Z,0
2016-12-05T06:47:08.002Z,0
2016-12-05T06:48:08.068Z,0
2016-12-05T06:49:08.032Z,0
2016-12-05T06:50:22.964Z,0
2016-12-05T06:51:22.974Z,0
2016-12-05T06:52:22.997Z,0
2016-12-05T06:53:23.051Z,0
2016-12-05T06:54:08.094Z,0
2016-12-05T06:55:08.113Z,0
2016-12-05T06:56:23.051Z,0
2016-12-05T06:57:23.057Z,0
2016-12-05T06:58:08.150Z,0
2016-12-05T06:59:24.212Z,0
2016-12-05T07:00:08.181Z,0
2016-12-05T07:01:08.193Z,0
2016-12-05T07:02:08.206Z,0
2016-12-05T07:03:08.217Z,0
2016-12-05T07:04:08.232Z,0
2016-12-05T07:05:08.245Z,0
2016-12-05T07:06:23.180Z,0
2016-12-05T07:07:23.201Z,0
2016-12-05T07:08:08.285Z,0
2016-12-05T07:09:08.296Z,0
2016-12-05T07:10:23.230Z,0
2016-12-05T07:11:08.325Z,0
2016-12-05T07:12:23.260Z,0
2016-12-05T07:13:08.358Z,5
2016-12-05T07:14:08.370Z,5
2016-12-05T07:15:08.381Z,5
2016-12-05T07:16:08.397Z,5
2016-12-05T07:17:08.409Z,5
2016-12-05T07:18:08.429Z,5
2016-12-05T07:19:08.441Z,5
2016-12-05T07:20:08.451Z,5
2016-12-05T07:21:08.461Z,5
2016-12-05T07:22:08.477Z,5
2016-12-05T07:23:23.405Z,5
2016-12-05T07:24:08.517Z,5
2016-12-05T07:25:23.428Z,5
2016-12-05T07:26:08.529Z,5
2016-12-05T07:27:08.553Z,5
2016-12-05T07:28:23.480Z,5
2016-12-05T07:29:23.487Z,5
2016-12-05T07:30:08.629Z,10
2016-12-05T07:31:08.898Z,10
2016-12-05T07:32:08.914Z,10
2016-12-05T07:33:08.619Z,10
2016-12-05T07:34:08.639Z,10
2016-12-05T07:35:08.644Z,10
2016-12-05T07:36:08.662Z,10
2016-12-05T07:37:08.711Z,10
2016-12-05T07:38:23.605Z,10
2016-12-05T07:39:08.700Z,10
2016-12-05T07:40:09.076Z,15
2016-12-05T07:41:08.727Z,15
2016-12-05T07:42:08.750Z,15
2016-12-05T07:43:23.679Z,15
2016-12-05T07:44:08.770Z,15
2016-12-05T07:45:08.832Z,15
2016-12-05T07:46:23.730Z,15
2016-12-05T07:47:08.809Z,15
2016-12-05T07:48:08.825Z,15
2016-12-05T07:49:08.841Z,20
2016-12-05T07:50:08.849Z,20
2016-12-05T07:51:23.782Z,20
2016-12-05T07:52:08.902Z,20
2016-12-05T07:53:08.895Z,20
2016-12-05T07:54:08.909Z,20
2016-12-05T07:55:08.911Z,20
2016-12-05T07:56:23.859Z,25
2016-12-05T07:57:08.939Z,25
2016-12-05T07:58:09.258Z,20
2016-12-05T07:59:23.894Z,25
2016-12-05T08:00:08.982Z,25
2016-12-05T08:01:09.002Z,25
2016-12-05T08:03:09.044Z,25
2016-12-05T08:05:09.052Z,25
2016-12-05T08:06:09.080Z,25
2016-12-05T08:07:09.076Z,25
2016-12-05T08:08:09.108Z,30
2016-12-05T08:09:09.112Z,30
2016-12-05T08:10:09.118Z,30
2016-12-05T08:11:09.174Z,30
2016-12-05T08:12:24.074Z,30
2016-12-05T08:13:09.164Z,30
2016-12-05T08:14:09.175Z,30
2016-12-05T08:15:24.103Z,30
2016-12-05T08:16:09.196Z,30
2016-12-05T08:17:09.215Z,25
2016-12-05T08:18:24.153Z,30
2016-12-05T08:19:09.253Z,30
2016-12-05T08:20:09.248Z,30
2016-12-05T08:21:24.190Z,30
2016-12-05T08:22:24.256Z,30
2016-12-05T08:23:09.296Z,30
2016-12-05T08:24:09.298Z,35
2016-12-05T08:25:09.320Z,30
2016-12-05T08:26:09.331Z,30
2016-12-05T08:27:09.344Z,35
2016-12-05T08:29:09.375Z,35
2016-12-05T08:30:09.683Z,35
2016-12-05T08:31:24.319Z,35
2016-12-05T08:33:24.352Z,30
2016-12-05T08:34:09.446Z,30
2016-12-05T08:35:24.375Z,35
2016-12-05T08:37:24.405Z,35
2016-12-05T08:38:24.427Z,35
2016-12-05T08:39:09.515Z,35
2016-12-05T08:40:24.450Z,35
2016-12-05T08:41:09.537Z,35
2016-12-05T08:42:09.552Z,40
2016-12-05T08:43:09.591Z,40
2016-12-05T08:44:24.495Z,35
2016-12-05T08:45:09.900Z,35
2016-12-05T08:46:09.602Z,35
2016-12-05T08:47:24.543Z,40
2016-12-05T08:48:09.658Z,40
2016-12-05T08:49:09.646Z,40
2016-12-05T08:50:09.659Z,40
2016-12-05T08:51:09.677Z,40
2016-12-05T08:52:09.685Z,40
2016-12-05T08:53:09.705Z,40
2016-12-05T08:54:09.713Z,45
2016-12-05T08:55:09.733Z,45
2016-12-05T08:56:09.745Z,50
2016-12-05T08:57:09.805Z,50
2016-12-05T08:58:09.769Z,50
2016-12-05T08:59:09.782Z,55
2016-12-05T09:00:09.801Z,50
2016-12-05T09:01:09.807Z,50
2016-12-05T09:02:09.829Z,55
2016-12-05T09:03:24.754Z,55
2016-12-05T09:04:09.857Z,60
2016-12-05T09:05:09.866Z,60
2016-12-05T09:06:09.883Z,60
2016-12-05T09:07:09.902Z,60
2016-12-05T09:08:09.904Z,60
2016-12-05T09:09:09.917Z,65
2016-12-05T09:10:09.933Z,65
2016-12-05T09:11:09.949Z,65
2016-12-05T09:12:24.884Z,75
2016-12-05T09:13:09.981Z,75
2016-12-05T09:14:09.994Z,75
2016-12-05T09:15:10.022Z,80
2016-12-05T09:16:10.026Z,80
2016-12-05T09:17:10.334Z,80
2016-12-05T09:18:24.960Z,75
2016-12-05T09:19:10.066Z,75
2016-12-05T09:20:24.996Z,75
2016-12-05T09:21:10.437Z,80
2016-12-05T09:22:10.107Z,80
2016-12-05T09:23:10.121Z,80
2016-12-05T09:24:10.133Z,80
2016-12-05T09:25:10.462Z,85
2016-12-05T09:26:10.167Z,85
2016-12-05T09:27:10.173Z,85
2016-12-05T09:28:10.198Z,95
2016-12-05T09:30:10.223Z,95
2016-12-05T09:31:10.228Z,95
2016-12-05T09:32:10.246Z,95
2016-12-05T09:34:10.275Z,105
2016-12-05T09:35:10.292Z,105
2016-12-05T09:36:10.307Z,100
2016-12-05T09:38:10.338Z,95
2016-12-05T09:39:10.657Z,95
2016-12-05T09:40:10.374Z,95
2016-12-05T09:41:10.372Z,105
2016-12-05T09:42:10.441Z,105
2016-12-05T09:43:25.632Z,110
2016-12-05T09:44:10.422Z,110
2016-12-05T09:45:10.437Z,110
2016-12-05T09:48:10.478Z,105
2016-12-05T09:49:25.413Z,100
2016-12-05T09:50:25.429Z,100
2016-12-05T09:51:25.449Z,95
2016-12-05T09:52:10.550Z,95
2016-12-05T09:53:10.560Z,90
2016-12-05T09:54:10.574Z,90
2016-12-05T09:55:25.512Z,90
2016-12-05T09:56:10.609Z,90
2016-12-05T09:57:10.623Z,90
2016-12-05T09:58:10.627Z,90
2016-12-05T10:00:10.653Z,85
2016-12-05T10:02:25.619Z,85
2016-12-05T10:03:25.630Z,90
2016-12-05T10:06:25.678Z,95
2016-12-05T10:07:10.766Z,95
2016-12-05T10:08:10.781Z,100
2016-12-05T10:09:10.798Z,100
2016-12-05T10:10:10.811Z,100
2016-12-05T10:11:11.134Z,100
2016-12-05T10:12:10.853Z,100
2016-12-05T10:13:10.859Z,105
2016-12-05T10:14:10.870Z,100
2016-12-05T10:16:11.202Z,90
2016-12-05T10:17:10.921Z,95
2016-12-05T10:18:10.925Z,95
2016-12-05T10:19:10.967Z,95
2016-12-05T10:20:10.965Z,95
2016-12-05T10:21:25.895Z,95
2016-12-05T10:22:25.902Z,90
2016-12-05T10:23:11.299Z,90
2016-12-05T10:24:11.017Z,90
2016-12-05T10:25:11.039Z,90
2016-12-05T10:26:11.103Z,90
2016-12-05T10:27:11.059Z,90
2016-12-05T10:28:11.076Z,90
2016-12-05T10:30:11.109Z,85
2016-12-05T10:31:11.120Z,85
2016-12-05T10:32:11.139Z,85
2016-12-05T10:33:11.152Z,85
2016-12-05T10:34:11.199Z,85
2016-12-05T10:35:11.170Z,85
2016-12-05T10:36:26.173Z,85
2016-12-05T10:37:11.206Z,85
2016-12-05T10:38:26.138Z,85
2016-12-05T10:39:26.156Z,85
2016-12-05T10:41:11.297Z,85
2016-12-05T10:42:26.193Z,85
2016-12-05T10:43:11.299Z,85
2016-12-05T10:44:11.297Z,85
2016-12-05T10:46:11.333Z,85
2016-12-05T10:47:11.346Z,85
2016-12-05T10:48:11.359Z,85
2016-12-05T10:49:11.388Z,85
2016-12-05T10:50:11.392Z,85
2016-12-05T10:51:11.424Z,85
2016-12-05T10:52:11.423Z,85
2016-12-05T10:53:26.394Z,85
2016-12-05T10:54:26.374Z,85
2016-12-05T10:55:11.475Z,85
2016-12-05T10:56:11.516Z,85
2016-12-05T10:57:11.498Z,85
2016-12-05T10:58:11.521Z,85
2016-12-05T10:59:11.525Z,85
2016-12-05T11:01:11.603Z,85
2016-12-05T11:02:11.874Z,85
2016-12-05T11:03:26.507Z,85
2016-12-05T11:05:11.606Z,85
2016-12-05T11:06:11.708Z,85
2016-12-05T11:07:11.639Z,85
2016-12-05T11:08:11.657Z,85
2016-12-05T11:09:11.677Z,85
2016-12-05T11:10:12.039Z,85
2016-12-05T11:11:11.704Z,85
2016-12-05T11:12:11.715Z,85
2016-12-05T11:13:11.741Z,85
2016-12-05T11:14:11.755Z,85
2016-12-05T11:15:11.765Z,85
2016-12-05T11:16:11.781Z,85
2016-12-05T11:17:11.810Z,85
2016-12-05T11:18:11.811Z,85
2016-12-05T11:19:11.888Z,85
2016-12-05T11:20:11.840Z,85
2016-12-05T11:21:11.850Z,85
2016-12-05T11:22:11.868Z,85
2016-12-05T11:23:11.883Z,85
2016-12-05T11:24:27.118Z,85
2016-12-05T11:26:11.920Z,85
2016-12-05T11:27:11.943Z,85
2016-12-05T11:28:12.250Z,85
2016-12-05T11:29:11.977Z,85
2016-12-05T11:30:12.012Z,85
2016-12-05T11:31:12.031Z,85
2016-12-05T11:32:12.015Z,85
2016-12-05T11:33:12.034Z,85
2016-12-05T11:34:12.047Z,85
2016-12-05T11:35:26.978Z,85
2016-12-05T11:36:12.171Z,85
2016-12-05T11:37:27.011Z,85
2016-12-05T11:38:27.321Z,85
2016-12-05T11:39:12.114Z,85
2016-12-05T11:40:12.131Z,85
2016-12-05T11:41:42.041Z,85
2016-12-05T11:42:12.164Z,85
2016-12-05T11:43:12.176Z,85
2016-12-05T11:45:12.214Z,85
2016-12-05T11:46:12.229Z,85
2016-12-05T11:47:12.237Z,85
2016-12-05T11:48:12.255Z,85
2016-12-05T11:49:12.258Z,85
2016-12-05T11:50:12.282Z,85
2016-12-05T11:51:12.301Z,85
2016-12-05T11:52:12.311Z,85
2016-12-05T11:53:27.249Z,85
2016-12-05T11:54:27.255Z,85
2016-12-05T11:55:12.352Z,85
2016-12-05T11:56:27.284Z,80
2016-12-05T11:57:27.304Z,85
2016-12-05T11:58:12.400Z,85
2016-12-05T11:59:12.412Z,85
2016-12-05T12:00:27.350Z,85
2016-12-05T12:01:12.442Z,85
2016-12-05T12:02:12.454Z,85
2016-12-05T12:03:12.472Z,85
2016-12-05T12:04:12.490Z,85
2016-12-05T12:05:12.502Z,85
2016-12-05T12:06:12.513Z,85
2016-12-05T12:07:12.559Z,85
2016-12-05T12:08:12.545Z,85
2016-12-05T12:09:27.480Z,85
2016-12-05T12:10:12.573Z,85
2016-12-05T12:11:27.510Z,85
2016-12-05T12:13:27.540Z,85
2016-12-05T12:14:12.639Z,85
2016-12-05T12:15:12.947Z,80
2016-12-05T12:16:12.672Z,85
2016-12-05T12:17:12.698Z,80
2016-12-05T12:18:12.703Z,80
2016-12-05T12:19:12.709Z,80
2016-12-05T12:20:12.723Z,80
2016-12-05T12:21:12.731Z,80
2016-12-05T12:22:12.748Z,80
2016-12-05T12:23:12.775Z,80
2016-12-05T12:24:13.090Z,80
2016-12-05T12:26:12.818Z,80
2016-12-05T12:27:27.751Z,80
2016-12-05T12:28:27.772Z,80
2016-12-05T12:29:27.782Z,80
2016-12-05T12:30:12.892Z,80
2016-12-05T12:31:12.894Z,80
2016-12-05T12:32:12.933Z,80
2016-12-05T12:33:12.923Z,80
2016-12-05T12:34:12.935Z,80
2016-12-05T12:35:12.956Z,80
2016-12-05T12:36:27.888Z,80
2016-12-05T12:37:12.978Z,80
2016-12-05T12:38:12.996Z,80
2016-12-05T12:39:13.024Z,80
2016-12-05T12:40:13.038Z,80
2016-12-05T12:41:13.038Z,80
2016-12-05T12:42:27.976Z,80
2016-12-05T12:43:13.087Z,80
2016-12-05T12:45:13.099Z,80
2016-12-05T12:46:28.048Z,80
2016-12-05T12:47:28.062Z,80
2016-12-05T12:48:13.152Z,80
2016-12-05T12:49:13.156Z,80
2016-12-05T12:50:13.178Z,80
2016-12-05T12:51:13.193Z,75
2016-12-05T12:52:13.211Z,80
2016-12-05T12:53:13.221Z,75
2016-12-05T12:54:13.239Z,75
2016-12-05T12:55:13.271Z,75
2016-12-05T12:56:13.269Z,75
2016-12-05T12:57:13.285Z,75
2016-12-05T12:58:13.295Z,75
2016-12-05T12:59:28.283Z,75
2016-12-05T13:00:28.251Z,75
2016-12-05T13:01:13.341Z,75
2016-12-05T13:02:13.367Z,75
2016-12-05T13:03:28.296Z,75
2016-12-05T13:04:13.395Z,75
2016-12-05T13:05:13.408Z,75
2016-12-05T13:06:13.425Z,75
2016-12-05T13:07:13.436Z,75
2016-12-05T13:08:13.448Z,75
2016-12-05T13:09:28.691Z,75
2016-12-05T13:10:13.482Z,70
2016-12-05T13:11:13.502Z,70
2016-12-05T13:12:13.525Z,70
2016-12-05T13:13:13.527Z,70
2016-12-05T13:14:13.553Z,70
2016-12-05T13:15:13.565Z,70
2016-12-05T13:16:28.799Z,70
2016-12-05T13:17:13.588Z,70
2016-12-05T13:19:28.843Z,70
2016-12-05T13:20:13.661Z,70
2016-12-05T13:21:28.562Z,70
2016-12-05T13:22:13.667Z,70
2016-12-05T13:23:13.681Z,70
2016-12-05T13:24:13.696Z,65
2016-12-05T13:25:13.715Z,65
2016-12-05T13:26:13.720Z,65
2016-12-05T13:27:28.667Z,65
2016-12-05T13:28:13.759Z,65
2016-12-05T13:29:13.771Z,65
2016-12-05T13:30:28.705Z,65
2016-12-05T13:31:28.720Z,65
2016-12-05T13:32:28.739Z,55
2016-12-05T13:33:14.126Z,60
2016-12-05T13:34:13.843Z,60
2016-12-05T13:35:13.865Z,55
2016-12-05T13:36:13.882Z,60
2016-12-05T13:37:13.903Z,60
2016-12-05T13:38:13.910Z,55
2016-12-05T13:39:13.933Z,45
2016-12-05T13:40:13.935Z,50
2016-12-05T13:41:13.958Z,50
2016-12-05T13:42:13.978Z,45
2016-12-05T13:43:28.910Z,45
2016-12-05T13:44:28.922Z,45
2016-12-05T13:45:14.008Z,50
2016-12-05T13:46:14.031Z,40
2016-12-05T13:47:28.974Z,45
2016-12-05T13:48:28.981Z,40
2016-12-05T13:49:14.079Z,40
2016-12-05T13:50:14.113Z,40
2016-12-05T13:51:29.021Z,40
2016-12-05T13:52:14.117Z,35
2016-12-05T13:53:14.134Z,35
2016-12-05T13:54:14.701Z,35
2016-12-05T13:55:14.212Z,35
2016-12-05T13:56:14.179Z,35
2016-12-05T13:57:14.197Z,35
2016-12-05T13:58:29.136Z,35
2016-12-05T13:59:14.214Z,35
2016-12-05T14:00:14.242Z,30
2016-12-05T14:01:29.180Z,30
2016-12-05T14:03:44.130Z,30
2016-12-05T14:04:14.299Z,30
2016-12-05T14:06:14.331Z,30
2016-12-05T14:07:14.347Z,30
2016-12-05T14:08:14.356Z,30
2016-12-05T14:09:14.372Z,30
2016-12-05T14:11:14.410Z,25
2016-12-05T14:12:14.418Z,25
2016-12-05T14:13:14.425Z,25
2016-12-05T14:15:14.463Z,25
2016-12-05T14:16:14.511Z,25
2016-12-05T14:17:14.487Z,25
2016-12-05T14:18:14.511Z,25
2016-12-05T14:19:14.533Z,20
2016-12-05T14:20:14.566Z,20
2016-12-05T14:21:14.574Z,20
2016-12-05T14:22:14.562Z,20
2016-12-05T14:23:14.579Z,20
2016-12-05T14:24:14.594Z,20
2016-12-05T14:26:14.625Z,20
2016-12-05T14:27:14.939Z,15
2016-12-05T14:28:14.643Z,15
2016-12-05T14:29:14.716Z,15
2016-12-05T14:30:14.683Z,15
2016-12-05T14:31:14.692Z,15
2016-12-05T14:32:14.718Z,15
2016-12-05T14:33:14.725Z,15
2016-12-05T14:34:44.585Z,10
2016-12-05T14:35:29.673Z,10
2016-12-05T14:36:14.769Z,10
2016-12-05T14:37:14.778Z,10
2016-12-05T14:38:14.792Z,10
2016-12-05T14:39:14.880Z,10
2016-12-05T14:40:14.872Z,10
2016-12-05T14:41:29.764Z,10
2016-12-05T14:42:14.848Z,5
2016-12-05T14:43:14.861Z,5
2016-12-05T14:44:14.893Z,5
2016-12-05T14:45:14.896Z,5
2016-12-05T14:47:15.237Z,5
2016-12-05T14:48:14.939Z,5
2016-12-05T14:49:29.871Z,5
2016-12-05T14:50:14.965Z,5
2016-12-05T14:51:29.910Z,5
2016-12-05T14:52:29.919Z,5
2016-12-05T14:53:15.330Z,5
2016-12-05T14:54:15.031Z,0
2016-12-05T14:55:15.049Z,0
2016-12-05T14:56:15.058Z,0
2016-12-05T14:57:15.371Z,0
2016-12-05T14:58:15.392Z,0
2016-12-05T14:59:15.104Z,0
2016-12-05T15:00:15.115Z,0
2016-12-05T15:01:30.102Z,0
2016-12-05T15:02:15.145Z,0
2016-12-05T15:03:15.155Z,0
2016-12-05T15:04:15.166Z,0
2016-12-05T15:05:15.176Z,0
2016-12-05T15:06:15.196Z,0
2016-12-05T15:07:30.137Z,0
2016-12-05T15:08:16.236Z,0
2016-12-05T15:09:30.172Z,0
2016-12-05T15:10:15.256Z,0
2016-12-05T15:11:15.320Z,0
2016-12-05T15:12:15.288Z,0
2016-12-05T15:13:15.294Z,0
2016-12-05T15:14:30.244Z,0
2016-12-05T15:15:15.335Z,0
2016-12-05T15:16:15.338Z,0
2016-12-05T15:17:15.387Z,0
2016-12-05T15:18:15.362Z,0
2016-12-05T15:19:15.382Z,0
2016-12-05T15:20:15.396Z,0
2016-12-05T15:21:15.415Z,0
2016-12-05T15:22:30.346Z,0
2016-12-05T15:23:30.364Z,0
2016-12-05T15:24:15.463Z,0
2016-12-05T15:25:45.314Z,0